sensor_id;sensor_type;location;lat;lon;timestamp;P1;durP1;ratioP1;P2;durP2;ratioP2
20611;SDS011;10465;42.686;23.364;2022-09-29T00:01:23;5.18;;;2.25;;
20611;SDS011;10465;42.686;23.364;2022-09-29T00:03:48;5.15;;;2.40;;
20611;SDS011;10465;42.686;23.364;2022-09-29T00:06:15;3.75;;;2.63;;
20611;SDS011;10465;42.686;23.364;2022-09-29T00:08:42;6.93;;;2.83;;
20611;SDS011;10465;42.686;23.364;2022-09-29T00:11:09;5.32;;;2.85;;
20611;SDS011;10465;42.686;23.364;2022-09-29T00:13:36;6.50;;;2.65;;
20611;SDS011;10465;42.686;23.364;2022-09-29T00:16:02;4.43;;;2.38;;
20611;SDS011;10465;42.686;23.364;2022-09-29T00:18:29;5.35;;;2.70;;
20611;SDS011;10465;42.686;23.364;2022-09-29T00:21:03;6.40;;;3.45;;
20611;SDS011;10465;42.686;23.364;2022-09-29T00:23:33;4.55;;;2.70;;
20611;SDS011;10465;42.686;23.364;2022-09-29T00:28:28;3.67;;;2.40;;
20611;SDS011;10465;42.686;23.364;2022-09-29T00:30:54;2.60;;;2.28;;
20611;SDS011;10465;42.686;23.364;2022-09-29T00:33:19;5.20;;;2.20;;
20611;SDS011;10465;42.686;23.364;2022-09-29T00:35:54;5.28;;;3.45;;
20611;SDS011;10465;42.686;23.364;2022-09-29T00:38:24;9.52;;;3.08;;
20611;SDS011;10465;42.686;23.364;2022-09-29T00:40:50;7.65;;;3.10;;
20611;SDS011;10465;42.686;23.364;2022-09-29T00:43:19;4.38;;;2.80;;
20611;SDS011;10465;42.686;23.364;2022-09-29T00:45:48;3.92;;;2.75;;
20611;SDS011;10465;42.686;23.364;2022-09-29T00:48:16;8.95;;;3.08;;
20611;SDS011;10465;42.686;23.364;2022-09-29T00:50:47;4.97;;;3.22;;
20611;SDS011;10465;42.686;23.364;2022-09-29T00:53:16;6.20;;;3.00;;
20611;SDS011;10465;42.686;23.364;2022-09-29T00:55:52;5.10;;;3.55;;
20611;SDS011;10465;42.686;23.364;2022-09-29T00:58:28;5.25;;;2.92;;
20611;SDS011;10465;42.686;23.364;2022-09-29T01:01:04;7.30;;;3.20;;
20611;SDS011;10465;42.686;23.364;2022-09-29T01:03:32;5.35;;;2.85;;
20611;SDS011;10465;42.686;23.364;2022-09-29T01:06:10;7.55;;;3.22;;
20611;SDS011;10465;42.686;23.364;2022-09-29T01:08:58;6.65;;;3.30;;
20611;SDS011;10465;42.686;23.364;2022-09-29T01:11:25;8.43;;;3.25;;
20611;SDS011;10465;42.686;23.364;2022-09-29T01:13:51;5.57;;;3.00;;
20611;SDS011;10465;42.686;23.364;2022-09-29T01:16:18;5.03;;;2.90;;
20611;SDS011;10465;42.686;23.364;2022-09-29T01:18:44;5.32;;;2.70;;
20611;SDS011;10465;42.686;23.364;2022-09-29T01:29:58;5.25;;;2.85;;
20611;SDS011;10465;42.686;23.364;2022-09-29T01:35:34;6.20;;;2.60;;
20611;SDS011;10465;42.686;23.364;2022-09-29T01:38:13;4.43;;;2.65;;
20611;SDS011;10465;42.686;23.364;2022-09-29T01:43:39;4.75;;;2.60;;
20611;SDS011;10465;42.686;23.364;2022-09-29T01:46:14;5.10;;;2.60;;
20611;SDS011;10465;42.686;23.364;2022-09-29T01:48:46;5.68;;;2.60;;
20611;SDS011;10465;42.686;23.364;2022-09-29T01:51:16;4.85;;;2.67;;
20611;SDS011;10465;42.686;23.364;2022-09-29T01:53:47;5.50;;;2.90;;
20611;SDS011;10465;42.686;23.364;2022-09-29T01:56:20;5.22;;;2.65;;
20611;SDS011;10465;42.686;23.364;2022-09-29T02:01:22;7.47;;;3.10;;
20611;SDS011;10465;42.686;23.364;2022-09-29T02:06:39;4.78;;;3.30;;
20611;SDS011;10465;42.686;23.364;2022-09-29T02:09:22;4.53;;;3.53;;
20611;SDS011;10465;42.686;23.364;2022-09-29T02:11:52;4.13;;;3.47;;
20611;SDS011;10465;42.686;23.364;2022-09-29T02:14:22;4.57;;;3.85;;
20611;SDS011;10465;42.686;23.364;2022-09-29T02:16:54;6.80;;;3.65;;
20611;SDS011;10465;42.686;23.364;2022-09-29T02:19:28;10.32;;;4.38;;
20611;SDS011;10465;42.686;23.364;2022-09-29T02:21:58;6.00;;;4.18;;
20611;SDS011;10465;42.686;23.364;2022-09-29T02:24:24;9.52;;;3.95;;
20611;SDS011;10465;42.686;23.364;2022-09-29T02:26:50;4.53;;;3.88;;
20611;SDS011;10465;42.686;23.364;2022-09-29T02:29:16;6.70;;;4.10;;
20611;SDS011;10465;42.686;23.364;2022-09-29T02:31:42;6.72;;;4.10;;
20611;SDS011;10465;42.686;23.364;2022-09-29T02:34:10;4.25;;;3.88;;
20611;SDS011;10465;42.686;23.364;2022-09-29T02:39:32;6.30;;;4.15;;
20611;SDS011;10465;42.686;23.364;2022-09-29T02:42:29;5.97;;;3.60;;
20611;SDS011;10465;42.686;23.364;2022-09-29T02:53:28;8.52;;;5.07;;
20611;SDS011;10465;42.686;23.364;2022-09-29T03:01:22;8.52;;;4.93;;
20611;SDS011;10465;42.686;23.364;2022-09-29T03:03:48;8.85;;;4.90;;
20611;SDS011;10465;42.686;23.364;2022-09-29T03:06:14;6.63;;;4.40;;
20611;SDS011;10465;42.686;23.364;2022-09-29T03:08:42;4.95;;;4.20;;
20611;SDS011;10465;42.686;23.364;2022-09-29T03:11:08;11.10;;;4.85;;
20611;SDS011;10465;42.686;23.364;2022-09-29T03:13:34;7.70;;;4.45;;
20611;SDS011;10465;42.686;23.364;2022-09-29T03:15:59;7.13;;;4.28;;
20611;SDS011;10465;42.686;23.364;2022-09-29T03:18:25;5.72;;;4.13;;
20611;SDS011;10465;42.686;23.364;2022-09-29T03:20:52;4.53;;;3.53;;
20611;SDS011;10465;42.686;23.364;2022-09-29T03:23:18;6.45;;;3.78;;
20611;SDS011;10465;42.686;23.364;2022-09-29T03:25:44;9.05;;;4.45;;
20611;SDS011;10465;42.686;23.364;2022-09-29T03:28:09;4.72;;;3.00;;
20611;SDS011;10465;42.686;23.364;2022-09-29T03:30:35;8.75;;;3.83;;
20611;SDS011;10465;42.686;23.364;2022-09-29T03:33:00;6.97;;;4.10;;
20611;SDS011;10465;42.686;23.364;2022-09-29T03:35:26;11.75;;;4.50;;
20611;SDS011;10465;42.686;23.364;2022-09-29T03:37:55;7.60;;;4.45;;
20611;SDS011;10465;42.686;23.364;2022-09-29T03:40:21;7.20;;;3.88;;
20611;SDS011;10465;42.686;23.364;2022-09-29T03:42:46;9.43;;;3.95;;
20611;SDS011;10465;42.686;23.364;2022-09-29T03:45:12;10.60;;;4.50;;
20611;SDS011;10465;42.686;23.364;2022-09-29T03:47:38;8.95;;;4.53;;
20611;SDS011;10465;42.686;23.364;2022-09-29T03:50:03;6.65;;;4.85;;
20611;SDS011;10465;42.686;23.364;2022-09-29T03:52:29;8.90;;;4.47;;
20611;SDS011;10465;42.686;23.364;2022-09-29T03:54:54;9.52;;;4.97;;
20611;SDS011;10465;42.686;23.364;2022-09-29T03:57:20;6.20;;;4.85;;
20611;SDS011;10465;42.686;23.364;2022-09-29T03:59:45;6.60;;;5.20;;
20611;SDS011;10465;42.686;23.364;2022-09-29T04:02:11;7.07;;;5.43;;
20611;SDS011;10465;42.686;23.364;2022-09-29T04:04:36;8.30;;;4.38;;
20611;SDS011;10465;42.686;23.364;2022-09-29T04:07:02;8.50;;;4.88;;
20611;SDS011;10465;42.686;23.364;2022-09-29T04:09:28;6.15;;;4.40;;
20611;SDS011;10465;42.686;23.364;2022-09-29T04:11:53;4.70;;;3.97;;
20611;SDS011;10465;42.686;23.364;2022-09-29T04:14:19;6.80;;;4.10;;
20611;SDS011;10465;42.686;23.364;2022-09-29T04:16:44;8.95;;;4.97;;
20611;SDS011;10465;42.686;23.364;2022-09-29T04:19:10;7.40;;;4.55;;
20611;SDS011;10465;42.686;23.364;2022-09-29T04:21:35;7.72;;;4.38;;
20611;SDS011;10465;42.686;23.364;2022-09-29T04:24:00;5.80;;;4.32;;
20611;SDS011;10465;42.686;23.364;2022-09-29T04:26:26;10.70;;;4.10;;
20611;SDS011;10465;42.686;23.364;2022-09-29T04:28:51;11.65;;;4.05;;
20611;SDS011;10465;42.686;23.364;2022-09-29T04:31:17;8.05;;;4.50;;
20611;SDS011;10465;42.686;23.364;2022-09-29T04:33:42;7.72;;;5.18;;
20611;SDS011;10465;42.686;23.364;2022-09-29T04:36:08;13.85;;;5.10;;
20611;SDS011;10465;42.686;23.364;2022-09-29T04:38:33;11.25;;;4.55;;
20611;SDS011;10465;42.686;23.364;2022-09-29T04:40:59;9.98;;;4.80;;
20611;SDS011;10465;42.686;23.364;2022-09-29T04:43:24;8.55;;;4.72;;
20611;SDS011;10465;42.686;23.364;2022-09-29T04:45:50;8.32;;;4.38;;
20611;SDS011;10465;42.686;23.364;2022-09-29T04:48:15;9.98;;;3.92;;
20611;SDS011;10465;42.686;23.364;2022-09-29T04:50:41;8.50;;;3.55;;
20611;SDS011;10465;42.686;23.364;2022-09-29T04:53:08;7.75;;;3.85;;
20611;SDS011;10465;42.686;23.364;2022-09-29T04:55:35;7.68;;;3.83;;
20611;SDS011;10465;42.686;23.364;2022-09-29T04:58:01;6.97;;;4.43;;
20611;SDS011;10465;42.686;23.364;2022-09-29T05:00:27;8.65;;;4.32;;
20611;SDS011;10465;42.686;23.364;2022-09-29T05:02:52;9.70;;;4.63;;
20611;SDS011;10465;42.686;23.364;2022-09-29T05:05:18;6.35;;;3.53;;
20611;SDS011;10465;42.686;23.364;2022-09-29T05:07:43;7.90;;;4.07;;
20611;SDS011;10465;42.686;23.364;2022-09-29T05:10:09;8.98;;;4.07;;
20611;SDS011;10465;42.686;23.364;2022-09-29T05:12:35;5.55;;;3.47;;
20611;SDS011;10465;42.686;23.364;2022-09-29T05:15:00;8.85;;;3.80;;
20611;SDS011;10465;42.686;23.364;2022-09-29T05:17:26;7.63;;;3.58;;
20611;SDS011;10465;42.686;23.364;2022-09-29T05:19:52;5.22;;;3.30;;
20611;SDS011;10465;42.686;23.364;2022-09-29T05:22:17;5.85;;;3.65;;
20611;SDS011;10465;42.686;23.364;2022-09-29T05:24:48;8.00;;;3.50;;
20611;SDS011;10465;42.686;23.364;2022-09-29T05:27:14;7.53;;;3.63;;
20611;SDS011;10465;42.686;23.364;2022-09-29T05:29:40;6.13;;;3.35;;
20611;SDS011;10465;42.686;23.364;2022-09-29T05:32:06;12.98;;;6.80;;
20611;SDS011;10465;42.686;23.364;2022-09-29T05:34:31;5.57;;;4.30;;
20611;SDS011;10465;42.686;23.364;2022-09-29T05:36:56;5.20;;;3.47;;
20611;SDS011;10465;42.686;23.364;2022-09-29T05:39:22;12.38;;;4.30;;
20611;SDS011;10465;42.686;23.364;2022-09-29T05:41:47;13.95;;;5.18;;
20611;SDS011;10465;42.686;23.364;2022-09-29T05:44:13;5.22;;;3.35;;
20611;SDS011;10465;42.686;23.364;2022-09-29T05:46:38;7.80;;;4.50;;
20611;SDS011;10465;42.686;23.364;2022-09-29T05:49:05;10.50;;;3.90;;
20611;SDS011;10465;42.686;23.364;2022-09-29T05:51:30;8.80;;;6.05;;
20611;SDS011;10465;42.686;23.364;2022-09-29T05:53:56;9.68;;;4.75;;
20611;SDS011;10465;42.686;23.364;2022-09-29T05:56:25;7.90;;;4.60;;
20611;SDS011;10465;42.686;23.364;2022-09-29T05:58:51;9.52;;;4.80;;
20611;SDS011;10465;42.686;23.364;2022-09-29T06:01:21;9.70;;;5.70;;
20611;SDS011;10465;42.686;23.364;2022-09-29T06:03:48;14.65;;;4.43;;
20611;SDS011;10465;42.686;23.364;2022-09-29T06:06:16;6.80;;;3.65;;
20611;SDS011;10465;42.686;23.364;2022-09-29T06:08:44;9.30;;;4.43;;
20611;SDS011;10465;42.686;23.364;2022-09-29T06:11:13;8.50;;;5.28;;
20611;SDS011;10465;42.686;23.364;2022-09-29T06:13:42;8.30;;;4.40;;
20611;SDS011;10465;42.686;23.364;2022-09-29T06:16:09;7.90;;;4.53;;
20611;SDS011;10465;42.686;23.364;2022-09-29T06:18:35;10.00;;;5.18;;
20611;SDS011;10465;42.686;23.364;2022-09-29T06:21:05;9.77;;;4.78;;
20611;SDS011;10465;42.686;23.364;2022-09-29T06:23:33;9.60;;;4.85;;
20611;SDS011;10465;42.686;23.364;2022-09-29T06:25:59;12.60;;;6.35;;
20611;SDS011;10465;42.686;23.364;2022-09-29T06:28:26;15.50;;;6.80;;
20611;SDS011;10465;42.686;23.364;2022-09-29T06:30:57;8.85;;;4.25;;
20611;SDS011;10465;42.686;23.364;2022-09-29T06:33:27;8.07;;;5.13;;
20611;SDS011;10465;42.686;23.364;2022-09-29T06:35:53;11.48;;;4.72;;
20611;SDS011;10465;42.686;23.364;2022-09-29T06:38:39;8.77;;;4.40;;
20611;SDS011;10465;42.686;23.364;2022-09-29T06:41:06;11.07;;;4.75;;
20611;SDS011;10465;42.686;23.364;2022-09-29T06:43:31;7.28;;;4.35;;
20611;SDS011;10465;42.686;23.364;2022-09-29T06:45:57;10.20;;;5.57;;
20611;SDS011;10465;42.686;23.364;2022-09-29T06:48:23;12.38;;;5.45;;
20611;SDS011;10465;42.686;23.364;2022-09-29T06:50:49;8.48;;;5.38;;
20611;SDS011;10465;42.686;23.364;2022-09-29T06:53:15;9.10;;;5.55;;
20611;SDS011;10465;42.686;23.364;2022-09-29T06:55:40;8.63;;;4.90;;
20611;SDS011;10465;42.686;23.364;2022-09-29T06:58:06;8.80;;;4.65;;
20611;SDS011;10465;42.686;23.364;2022-09-29T07:00:32;11.30;;;4.72;;
20611;SDS011;10465;42.686;23.364;2022-09-29T07:02:58;13.77;;;4.72;;
20611;SDS011;10465;42.686;23.364;2022-09-29T07:05:24;12.00;;;4.80;;
20611;SDS011;10465;42.686;23.364;2022-09-29T07:07:49;12.48;;;4.30;;
20611;SDS011;10465;42.686;23.364;2022-09-29T07:10:15;9.50;;;4.40;;
20611;SDS011;10465;42.686;23.364;2022-09-29T07:12:40;8.07;;;4.18;;
20611;SDS011;10465;42.686;23.364;2022-09-29T07:15:09;6.55;;;3.95;;
20611;SDS011;10465;42.686;23.364;2022-09-29T07:17:34;7.45;;;3.35;;
20611;SDS011;10465;42.686;23.364;2022-09-29T07:20:00;6.45;;;3.33;;
20611;SDS011;10465;42.686;23.364;2022-09-29T07:22:25;5.68;;;3.53;;
20611;SDS011;10465;42.686;23.364;2022-09-29T07:24:51;10.63;;;6.57;;
20611;SDS011;10465;42.686;23.364;2022-09-29T07:27:17;10.05;;;3.85;;
20611;SDS011;10465;42.686;23.364;2022-09-29T07:29:48;7.93;;;3.20;;
20611;SDS011;10465;42.686;23.364;2022-09-29T07:32:16;7.82;;;3.40;;
20611;SDS011;10465;42.686;23.364;2022-09-29T07:34:43;6.65;;;3.67;;
20611;SDS011;10465;42.686;23.364;2022-09-29T07:37:08;9.05;;;3.70;;
20611;SDS011;10465;42.686;23.364;2022-09-29T07:39:34;8.68;;;3.67;;
20611;SDS011;10465;42.686;23.364;2022-09-29T07:42:00;11.18;;;5.10;;
20611;SDS011;10465;42.686;23.364;2022-09-29T07:44:27;12.00;;;8.23;;
20611;SDS011;10465;42.686;23.364;2022-09-29T07:46:54;8.35;;;4.05;;
20611;SDS011;10465;42.686;23.364;2022-09-29T07:49:19;7.60;;;4.30;;
20611;SDS011;10465;42.686;23.364;2022-09-29T07:51:45;9.23;;;4.10;;
20611;SDS011;10465;42.686;23.364;2022-09-29T07:54:10;9.82;;;3.58;;
20611;SDS011;10465;42.686;23.364;2022-09-29T07:56:36;8.73;;;3.80;;
20611;SDS011;10465;42.686;23.364;2022-09-29T07:59:01;8.15;;;3.50;;
20611;SDS011;10465;42.686;23.364;2022-09-29T08:01:28;6.72;;;3.15;;
20611;SDS011;10465;42.686;23.364;2022-09-29T08:03:54;7.07;;;3.13;;
20611;SDS011;10465;42.686;23.364;2022-09-29T08:06:23;8.40;;;3.45;;
20611;SDS011;10465;42.686;23.364;2022-09-29T08:08:50;7.78;;;3.60;;
20611;SDS011;10465;42.686;23.364;2022-09-29T08:11:16;6.22;;;2.83;;
20611;SDS011;10465;42.686;23.364;2022-09-29T08:13:47;10.43;;;2.70;;
20611;SDS011;10465;42.686;23.364;2022-09-29T08:16:15;6.65;;;2.75;;
20611;SDS011;10465;42.686;23.364;2022-09-29T08:18:41;9.85;;;3.05;;
20611;SDS011;10465;42.686;23.364;2022-09-29T08:21:07;7.50;;;3.03;;
20611;SDS011;10465;42.686;23.364;2022-09-29T08:23:36;5.55;;;2.70;;
20611;SDS011;10465;42.686;23.364;2022-09-29T08:26:03;6.25;;;2.90;;
20611;SDS011;10465;42.686;23.364;2022-09-29T08:28:32;6.80;;;3.00;;
20611;SDS011;10465;42.686;23.364;2022-09-29T08:31:02;8.50;;;3.13;;
20611;SDS011;10465;42.686;23.364;2022-09-29T08:33:29;7.88;;;2.83;;
20611;SDS011;10465;42.686;23.364;2022-09-29T08:35:55;6.93;;;3.20;;
20611;SDS011;10465;42.686;23.364;2022-09-29T08:38:22;5.93;;;2.63;;
20611;SDS011;10465;42.686;23.364;2022-09-29T08:40:48;4.93;;;2.58;;
20611;SDS011;10465;42.686;23.364;2022-09-29T08:43:15;4.35;;;2.67;;
20611;SDS011;10465;42.686;23.364;2022-09-29T08:48:45;5.70;;;2.72;;
20611;SDS011;10465;42.686;23.364;2022-09-29T08:51:19;6.05;;;2.65;;
20611;SDS011;10465;42.686;23.364;2022-09-29T08:53:53;5.88;;;2.65;;
20611;SDS011;10465;42.686;23.364;2022-09-29T08:56:24;8.15;;;2.50;;
20611;SDS011;10465;42.686;23.364;2022-09-29T08:58:50;5.82;;;2.72;;
20611;SDS011;10465;42.686;23.364;2022-09-29T09:04:01;6.70;;;2.60;;
20611;SDS011;10465;42.686;23.364;2022-09-29T09:22:56;5.05;;;2.13;;
20611;SDS011;10465;42.686;23.364;2022-09-29T09:27:52;9.45;;;2.50;;
20611;SDS011;10465;42.686;23.364;2022-09-29T09:30:27;3.97;;;2.10;;
20611;SDS011;10465;42.686;23.364;2022-09-29T09:33:00;4.07;;;1.83;;
20611;SDS011;10465;42.686;23.364;2022-09-29T09:35:38;3.55;;;2.05;;
20611;SDS011;10465;42.686;23.364;2022-09-29T09:38:20;6.38;;;2.50;;
20611;SDS011;10465;42.686;23.364;2022-09-29T09:40:50;2.55;;;1.73;;
20611;SDS011;10465;42.686;23.364;2022-09-29T09:43:30;4.68;;;2.05;;
20611;SDS011;10465;42.686;23.364;2022-09-29T09:46:35;6.50;;;1.60;;
20611;SDS011;10465;42.686;23.364;2022-09-29T09:52:24;5.10;;;2.20;;
20611;SDS011;10465;42.686;23.364;2022-09-29T09:54:57;5.88;;;3.40;;
20611;SDS011;10465;42.686;23.364;2022-09-29T09:57:31;3.20;;;1.65;;
20611;SDS011;10465;42.686;23.364;2022-09-29T10:00:11;5.25;;;2.97;;
20611;SDS011;10465;42.686;23.364;2022-09-29T10:02:43;6.10;;;2.55;;
20611;SDS011;10465;42.686;23.364;2022-09-29T10:05:33;9.80;;;2.08;;
20611;SDS011;10465;42.686;23.364;2022-09-29T10:08:03;3.80;;;1.67;;
20611;SDS011;10465;42.686;23.364;2022-09-29T10:10:31;5.88;;;1.73;;
20611;SDS011;10465;42.686;23.364;2022-09-29T10:13:02;3.20;;;1.70;;
20611;SDS011;10465;42.686;23.364;2022-09-29T10:15:35;4.40;;;1.70;;
20611;SDS011;10465;42.686;23.364;2022-09-29T10:18:17;1.98;;;1.75;;
20611;SDS011;10465;42.686;23.364;2022-09-29T10:20:47;1.88;;;1.50;;
20611;SDS011;10465;42.686;23.364;2022-09-29T10:23:22;4.95;;;1.70;;
20611;SDS011;10465;42.686;23.364;2022-09-29T10:28:37;2.65;;;1.67;;
20611;SDS011;10465;42.686;23.364;2022-09-29T10:31:27;3.78;;;1.73;;
20611;SDS011;10465;42.686;23.364;2022-09-29T10:33:59;3.40;;;1.80;;
20611;SDS011;10465;42.686;23.364;2022-09-29T10:37:04;3.70;;;1.75;;
20611;SDS011;10465;42.686;23.364;2022-09-29T10:39:44;7.50;;;2.05;;
20611;SDS011;10465;42.686;23.364;2022-09-29T10:42:22;2.10;;;1.50;;
20611;SDS011;10465;42.686;23.364;2022-09-29T10:47:41;5.68;;;2.08;;
20611;SDS011;10465;42.686;23.364;2022-09-29T10:50:23;3.42;;;2.35;;
20611;SDS011;10465;42.686;23.364;2022-09-29T10:53:00;4.03;;;2.03;;
20611;SDS011;10465;42.686;23.364;2022-09-29T10:55:32;2.55;;;2.10;;
20611;SDS011;10465;42.686;23.364;2022-09-29T10:58:23;5.72;;;1.63;;
20611;SDS011;10465;42.686;23.364;2022-09-29T11:03:54;3.03;;;2.15;;
20611;SDS011;10465;42.686;23.364;2022-09-29T11:06:28;5.38;;;2.03;;
20611;SDS011;10465;42.686;23.364;2022-09-29T11:09:00;6.75;;;1.88;;
20611;SDS011;10465;42.686;23.364;2022-09-29T11:12:13;2.90;;;1.90;;
20611;SDS011;10465;42.686;23.364;2022-09-29T11:16:53;4.30;;;2.83;;
20611;SDS011;10465;42.686;23.364;2022-09-29T11:19:20;4.45;;;2.47;;
20611;SDS011;10465;42.686;23.364;2022-09-29T11:39:04;4.78;;;1.90;;
20611;SDS011;10465;42.686;23.364;2022-09-29T11:50:39;4.13;;;2.10;;
20611;SDS011;10465;42.686;23.364;2022-09-29T11:56:05;3.70;;;2.10;;
20611;SDS011;10465;42.686;23.364;2022-09-29T11:59:03;5.78;;;1.70;;
20611;SDS011;10465;42.686;23.364;2022-09-29T12:02:01;3.35;;;2.35;;
20611;SDS011;10465;42.686;23.364;2022-09-29T12:13:22;2.15;;;1.70;;
20611;SDS011;10465;42.686;23.364;2022-09-29T12:15:56;3.22;;;1.73;;
20611;SDS011;10465;42.686;23.364;2022-09-29T12:18:29;2.45;;;1.50;;
20611;SDS011;10465;42.686;23.364;2022-09-29T12:21:03;1.90;;;1.60;;
20611;SDS011;10465;42.686;23.364;2022-09-29T12:23:32;2.45;;;1.92;;
20611;SDS011;10465;42.686;23.364;2022-09-29T12:26:05;2.60;;;1.58;;
20611;SDS011;10465;42.686;23.364;2022-09-29T12:28:39;2.88;;;1.95;;
20611;SDS011;10465;42.686;23.364;2022-09-29T12:31:31;3.30;;;1.80;;
20611;SDS011;10465;42.686;23.364;2022-09-29T12:34:20;1.40;;;1.30;;
20611;SDS011;10465;42.686;23.364;2022-09-29T12:36:52;1.80;;;1.20;;
20611;SDS011;10465;42.686;23.364;2022-09-29T12:47:55;4.45;;;1.90;;
20611;SDS011;10465;42.686;23.364;2022-09-29T12:50:27;2.05;;;1.80;;
20611;SDS011;10465;42.686;23.364;2022-09-29T12:52:56;3.58;;;1.75;;
20611;SDS011;10465;42.686;23.364;2022-09-29T12:55:28;2.72;;;1.80;;
20611;SDS011;10465;42.686;23.364;2022-09-29T12:58:05;3.08;;;1.50;;
20611;SDS011;10465;42.686;23.364;2022-09-29T13:00:39;1.52;;;1.42;;
20611;SDS011;10465;42.686;23.364;2022-09-29T13:11:30;1.42;;;1.20;;
20611;SDS011;10465;42.686;23.364;2022-09-29T13:22:19;2.10;;;1.58;;
20611;SDS011;10465;42.686;23.364;2022-09-29T13:25:21;2.25;;;1.60;;
20611;SDS011;10465;42.686;23.364;2022-09-29T13:27:55;2.15;;;1.48;;
20611;SDS011;10465;42.686;23.364;2022-09-29T13:30:26;3.20;;;1.42;;
20611;SDS011;10465;42.686;23.364;2022-09-29T13:33:17;2.38;;;1.38;;
20611;SDS011;10465;42.686;23.364;2022-09-29T13:35:46;2.95;;;1.27;;
20611;SDS011;10465;42.686;23.364;2022-09-29T13:38:15;1.77;;;1.48;;
20611;SDS011;10465;42.686;23.364;2022-09-29T13:43:37;2.92;;;1.30;;
20611;SDS011;10465;42.686;23.364;2022-09-29T13:46:33;2.03;;;1.40;;
20611;SDS011;10465;42.686;23.364;2022-09-29T13:51:49;2.65;;;1.77;;
20611;SDS011;10465;42.686;23.364;2022-09-29T13:54:37;2.28;;;2.00;;
20611;SDS011;10465;42.686;23.364;2022-09-29T14:03:05;5.82;;;2.10;;
20611;SDS011;10465;42.686;23.364;2022-09-29T14:05:35;2.47;;;2.28;;
20611;SDS011;10465;42.686;23.364;2022-09-29T14:08:16;2.30;;;2.00;;
20611;SDS011;10465;42.686;23.364;2022-09-29T14:10:49;3.60;;;2.25;;
20611;SDS011;10465;42.686;23.364;2022-09-29T14:18:54;2.78;;;1.73;;
20611;SDS011;10465;42.686;23.364;2022-09-29T14:24:40;2.25;;;1.90;;
20611;SDS011;10465;42.686;23.364;2022-09-29T14:35:16;4.55;;;2.00;;
20611;SDS011;10465;42.686;23.364;2022-09-29T14:37:42;3.38;;;2.03;;
20611;SDS011;10465;42.686;23.364;2022-09-29T14:40:11;4.00;;;2.10;;
20611;SDS011;10465;42.686;23.364;2022-09-29T14:48:51;4.38;;;2.75;;
20611;SDS011;10465;42.686;23.364;2022-09-29T14:51:44;4.93;;;2.60;;
20611;SDS011;10465;42.686;23.364;2022-09-29T14:57:06;5.82;;;3.20;;
20611;SDS011;10465;42.686;23.364;2022-09-29T15:02:28;6.50;;;2.85;;
20611;SDS011;10465;42.686;23.364;2022-09-29T15:04:58;7.22;;;3.83;;
20611;SDS011;10465;42.686;23.364;2022-09-29T15:07:25;6.65;;;3.85;;
20611;SDS011;10465;42.686;23.364;2022-09-29T15:09:53;7.72;;;4.88;;
20611;SDS011;10465;42.686;23.364;2022-09-29T15:12:22;8.18;;;4.60;;
20611;SDS011;10465;42.686;23.364;2022-09-29T15:14:53;9.10;;;4.00;;
20611;SDS011;10465;42.686;23.364;2022-09-29T15:20:31;7.15;;;4.70;;
20611;SDS011;10465;42.686;23.364;2022-09-29T15:25:42;7.60;;;4.88;;
20611;SDS011;10465;42.686;23.364;2022-09-29T15:30:42;8.30;;;4.22;;
20611;SDS011;10465;42.686;23.364;2022-09-29T15:35:40;8.02;;;5.30;;
20611;SDS011;10465;42.686;23.364;2022-09-29T15:40:37;10.70;;;7.30;;
20611;SDS011;10465;42.686;23.364;2022-09-29T15:43:02;10.40;;;7.68;;
20611;SDS011;10465;42.686;23.364;2022-09-29T15:46:12;11.57;;;6.60;;
20611;SDS011;10465;42.686;23.364;2022-09-29T15:48:42;11.15;;;8.35;;
20611;SDS011;10465;42.686;23.364;2022-09-29T15:51:44;13.57;;;6.35;;
20611;SDS011;10465;42.686;23.364;2022-09-29T15:54:20;9.48;;;5.82;;
20611;SDS011;10465;42.686;23.364;2022-09-29T15:56:46;9.27;;;5.40;;
20611;SDS011;10465;42.686;23.364;2022-09-29T16:04:54;9.90;;;5.90;;
20611;SDS011;10465;42.686;23.364;2022-09-29T16:07:24;9.65;;;6.80;;
20611;SDS011;10465;42.686;23.364;2022-09-29T16:09:58;10.80;;;6.10;;
20611;SDS011;10465;42.686;23.364;2022-09-29T16:12:34;8.93;;;5.38;;
20611;SDS011;10465;42.686;23.364;2022-09-29T16:15:02;8.95;;;5.97;;
20611;SDS011;10465;42.686;23.364;2022-09-29T16:17:28;10.23;;;5.55;;
20611;SDS011;10465;42.686;23.364;2022-09-29T16:19:54;12.73;;;7.15;;
20611;SDS011;10465;42.686;23.364;2022-09-29T16:22:23;10.65;;;6.85;;
20611;SDS011;10465;42.686;23.364;2022-09-29T16:24:52;9.65;;;6.22;;
20611;SDS011;10465;42.686;23.364;2022-09-29T16:30:34;10.27;;;5.90;;
20611;SDS011;10465;42.686;23.364;2022-09-29T16:33:11;11.15;;;5.90;;
20611;SDS011;10465;42.686;23.364;2022-09-29T16:40:50;14.95;;;7.25;;
20611;SDS011;10465;42.686;23.364;2022-09-29T16:43:18;10.65;;;6.53;;
20611;SDS011;10465;42.686;23.364;2022-09-29T16:45:51;10.07;;;5.63;;
20611;SDS011;10465;42.686;23.364;2022-09-29T16:48:19;9.65;;;5.85;;
20611;SDS011;10465;42.686;23.364;2022-09-29T16:50:48;10.50;;;6.05;;
20611;SDS011;10465;42.686;23.364;2022-09-29T16:53:29;11.95;;;4.95;;
20611;SDS011;10465;42.686;23.364;2022-09-29T16:58:34;11.02;;;5.88;;
20611;SDS011;10465;42.686;23.364;2022-09-29T17:01:00;8.57;;;5.82;;
20611;SDS011;10465;42.686;23.364;2022-09-29T17:03:27;9.77;;;6.03;;
20611;SDS011;10465;42.686;23.364;2022-09-29T17:05:53;8.00;;;5.45;;
20611;SDS011;10465;42.686;23.364;2022-09-29T17:10:53;8.38;;;5.80;;
20611;SDS011;10465;42.686;23.364;2022-09-29T17:13:20;9.85;;;5.95;;
20611;SDS011;10465;42.686;23.364;2022-09-29T17:15:47;9.40;;;5.90;;
20611;SDS011;10465;42.686;23.364;2022-09-29T17:18:15;10.77;;;5.60;;
20611;SDS011;10465;42.686;23.364;2022-09-29T17:20:42;7.15;;;5.68;;
20611;SDS011;10465;42.686;23.364;2022-09-29T17:23:08;6.28;;;4.53;;
20611;SDS011;10465;42.686;23.364;2022-09-29T17:25:35;6.70;;;4.10;;
20611;SDS011;10465;42.686;23.364;2022-09-29T17:28:05;8.50;;;3.83;;
20611;SDS011;10465;42.686;23.364;2022-09-29T17:30:45;7.85;;;4.63;;
20611;SDS011;10465;42.686;23.364;2022-09-29T17:33:13;4.95;;;3.40;;
20611;SDS011;10465;42.686;23.364;2022-09-29T17:35:41;5.20;;;4.18;;
20611;SDS011;10465;42.686;23.364;2022-09-29T17:38:12;12.43;;;7.97;;
20611;SDS011;10465;42.686;23.364;2022-09-29T17:43:07;11.02;;;5.60;;
20611;SDS011;10465;42.686;23.364;2022-09-29T17:45:33;9.60;;;6.03;;
20611;SDS011;10465;42.686;23.364;2022-09-29T17:47:59;7.93;;;5.75;;
20611;SDS011;10465;42.686;23.364;2022-09-29T17:50:34;6.22;;;4.45;;
20611;SDS011;10465;42.686;23.364;2022-09-29T17:53:02;7.60;;;5.47;;
20611;SDS011;10465;42.686;23.364;2022-09-29T17:55:28;6.10;;;4.82;;
20611;SDS011;10465;42.686;23.364;2022-09-29T17:57:55;9.23;;;5.72;;
20611;SDS011;10465;42.686;23.364;2022-09-29T18:00:26;8.52;;;5.47;;
20611;SDS011;10465;42.686;23.364;2022-09-29T18:02:55;8.80;;;5.97;;
20611;SDS011;10465;42.686;23.364;2022-09-29T18:05:24;13.77;;;6.95;;
20611;SDS011;10465;42.686;23.364;2022-09-29T18:07:52;7.55;;;4.88;;
20611;SDS011;10465;42.686;23.364;2022-09-29T18:10:22;9.93;;;5.10;;
20611;SDS011;10465;42.686;23.364;2022-09-29T18:13:02;8.98;;;4.90;;
20611;SDS011;10465;42.686;23.364;2022-09-29T18:15:28;8.93;;;6.15;;
20611;SDS011;10465;42.686;23.364;2022-09-29T18:17:55;6.60;;;5.43;;
20611;SDS011;10465;42.686;23.364;2022-09-29T18:20:21;8.32;;;5.28;;
20611;SDS011;10465;42.686;23.364;2022-09-29T18:22:49;9.73;;;5.18;;
20611;SDS011;10465;42.686;23.364;2022-09-29T18:25:17;7.70;;;4.45;;
20611;SDS011;10465;42.686;23.364;2022-09-29T18:27:43;9.13;;;5.07;;